Flight Track Log - Related Links

Times and Time Zones

All times are in EDT time to prevent confusion due to time zone crossing. See the AWE1511 flight status page for this flight to view local times or setup timezone preferences in your user account.

Time Position Orientation Groundspeed Altitude Reporting Facility
EDT Latitude Longitude Course Direction KTS MPH feet Rate Location/Type
Thu 02:50:55 AM 33.4333 -112.0333 270° West 175 201 2,000  Level Phoenix TRACON
Thu 02:51:25 AM 33.4333 -112.0667 270° West 162 186 2,900 1,214 Climbing Phoenix TRACON
Thu 02:52:19 AM 33.4333 -112.1167 270° West 208 239 3,700 897 Climbing Phoenix TRACON
Thu 02:53:12 AM 33.4608 -112.1597 307° West 248 285 4,500 1,632 Climbing Albuquerque Center
Thu 02:54:13 AM 33.5081 -112.0978 48° Northeast 281 323 6,800 2,132 Climbing Albuquerque Center
Thu 02:55:13 AM 33.5347 -112.0086 70° East 287 330 8,800 1,884 Climbing Albuquerque Center
Thu 02:56:14 AM 33.5642 -111.9153 69° East 300 345 10,600 1,438 Climbing Albuquerque Center
Thu 02:57:14 AM 33.6042 -111.7894 69° East 343 395 11,700 1,587 Climbing Albuquerque Center
Thu 02:58:15 AM 33.6408 -111.6758 69° East 366 421 13,800 1,835 Climbing Albuquerque Center
Thu 02:59:15 AM 33.6767 -111.5631 69° East 366 421 15,400 1,587 Climbing Albuquerque Center
Thu 03:00:16 AM 33.7131 -111.4464 69° East 375 432 17,000 1,339 Climbing Albuquerque Center
Thu 03:01:16 AM 33.7581 -111.3281 65° Northeast 391 450 18,100 1,339 Climbing Albuquerque Center
Thu 03:02:17 AM 33.8028 -111.2081 66° East 397 457 19,700 1,438 Climbing Albuquerque Center
Thu 03:03:17 AM 33.8478 -111.0831 67° East 409 471 21,000 1,240 Climbing Albuquerque Center
Thu 03:04:18 AM 33.8944 -110.9572 66° East 414 476 22,200 1,240 Climbing Albuquerque Center
Thu 03:05:18 AM 33.9419 -110.8281 66° East 420 483 23,500 1,140 Climbing Albuquerque Center
Thu 03:06:19 AM 33.9900 -110.6983 66° East 424 488 24,500 1,041 Climbing Albuquerque Center
Thu 03:07:19 AM 34.0439 -110.5500 66° East 431 496 25,600 1,041 Climbing Albuquerque Center
Thu 03:08:20 AM 34.0939 -110.4158 66° East 438 504 26,600 992 Climbing Albuquerque Center
Thu 03:09:20 AM 34.1419 -110.2797 67° East 442 509 27,600 878 Climbing Albuquerque Center
Thu 03:11:00 AM 34.2141 -110.0607 67° East  Level FlightAware Approximate
Thu 03:12:26 AM 34.2953 -109.8519 67° East 457 526 30,200  Level Albuquerque Center
Thu 03:13:27 AM 34.3514 -109.6931 67° East 460 529 31,100 793 Climbing Albuquerque Center
Thu 03:14:27 AM 34.4000 -109.5572 67° East 460 529 31,800 850 Climbing Albuquerque Center
Thu 03:15:27 AM 34.4483 -109.4206 67° East 462 532 32,800 793 Climbing Albuquerque Center
Thu 03:16:28 AM 34.4881 -109.3058 67° East 462 532 33,400 793 Climbing Albuquerque Center
Thu 03:17:28 AM 34.5519 -109.1228 67° East 463 533 34,400 942 Climbing Albuquerque Center
Thu 03:18:29 AM 34.5986 -108.9894 67° East 456 525 35,300 793 Climbing Albuquerque Center
Thu 03:19:29 AM 34.6536 -108.8325 67° East 453 521 36,000 595 Climbing Albuquerque Center
Thu 03:20:30 AM 34.7003 -108.6978 67° East 453 521 36,500 446 Climbing Albuquerque Center
Thu 03:21:30 AM 34.7456 -108.5614 68° East 454 522 36,900 248 Climbing Albuquerque Center
Thu 03:22:31 AM 34.7936 -108.4222 67° East 455 524 37,000 50 Climbing Albuquerque Center
Thu 03:23:31 AM 34.8458 -108.2700 67° East 451 519 37,000  Level Albuquerque Center
Thu 03:24:32 AM 34.8919 -108.1322 68° East 457 526 37,000  Level Albuquerque Center
Thu 03:25:32 AM 34.9381 -107.9953 68° East 458 527 37,000  Level Albuquerque Center
Thu 03:26:33 AM 34.9919 -107.8361 68° East 456 525 37,000  Level Albuquerque Center
Thu 03:27:33 AM 35.0350 -107.7067 68° East 460 529 37,000  Level Albuquerque Center
Thu 03:28:34 AM 35.0831 -107.5628 68° East 458 527 37,000  Level Albuquerque Center
Thu 03:29:34 AM 35.1303 -107.4183 68° East 458 527 37,000  Level Albuquerque Center
Thu 03:30:35 AM 35.1786 -107.2731 68° East 459 528 37,000  Level Albuquerque Center
Thu 03:31:35 AM 35.2283 -107.1214 68° East 462 532 37,000  Level Albuquerque Center
Thu 03:32:36 AM 35.2806 -106.9608 68° East 457 526 37,000  Level Albuquerque Center
Thu 03:33:36 AM 35.3250 -106.8239 68° East 453 521 37,000  Level Albuquerque Center
Thu 03:34:37 AM 35.3697 -106.6875 68° East 452 520 37,000  Level Albuquerque Center
Thu 03:35:37 AM 35.4175 -106.5417 68° East 459 528 37,000  Level Albuquerque Center
Thu 03:36:38 AM 35.4631 -106.3992 69° East 452 520 37,000 50 Level Albuquerque Center
Thu 03:37:38 AM 35.5083 -106.2567 69° East 450 518 37,100  Climbing Albuquerque Center
Thu 03:38:38 AM 35.5528 -106.1156 69° East 445 512 37,000 -99 Descending Albuquerque Center
Thu 03:39:39 AM 35.5958 -105.9758 69° East 440 506 36,900  Descending Albuquerque Center
Thu 03:40:39 AM 35.6433 -105.8283 68° East 441 507 37,000 50 Climbing Albuquerque Center
Thu 03:41:40 AM 35.6850 -105.6928 69° East 444 511 37,000 50 Level Albuquerque Center
Thu 03:42:40 AM 35.7319 -105.5383 69° East 449 517 37,100 50 Climbing Albuquerque Center
Thu 03:43:40 AM 35.7750 -105.3947 70° East 444 511 37,100 -50 Level Albuquerque Center
Thu 03:44:41 AM 35.8197 -105.2522 69° East 443 510 37,000 -50 Descending Albuquerque Center
Thu 03:45:41 AM 35.8614 -105.1122 70° East 434 499 37,000  Level Albuquerque Center
Thu 03:46:42 AM 35.9064 -104.9683 69° East 439 505 37,000  Level Albuquerque Center
Thu 03:47:42 AM 35.9481 -104.8267 70° East 436 502 37,000  Level Albuquerque Center
Thu 03:48:43 AM 35.9908 -104.6867 69° East 432 497 37,000  Level Albuquerque Center
Thu 03:49:43 AM 36.0331 -104.5425 70° East 438 504 37,000  Level Albuquerque Center
Thu 03:50:43 AM 36.0761 -104.3994 70° East 438 504 37,000  Level Albuquerque Center
Thu 03:51:44 AM 36.1186 -104.2542 70° East 443 510 37,000 50 Level Albuquerque Center
Thu 03:52:44 AM 36.1622 -104.1100 69° East 442 509 37,100  Climbing Albuquerque Center
Thu 03:53:44 AM 36.2044 -103.9667 70° East 439 505 37,000 -50 Descending Albuquerque Center
Thu 03:54:45 AM 36.2467 -103.8242 70° East 438 504 37,000  Level Albuquerque Center
Thu 03:55:45 AM 36.2878 -103.6825 70° East 435 501 37,000  Level Albuquerque Center
Thu 03:56:46 AM 36.3214 -103.5628 71° East 436 502 37,000  Level Albuquerque Center
Thu 03:57:46 AM 36.3631 -103.4183 70° East 438 504 37,000  Level Albuquerque Center
Thu 03:58:46 AM 36.4044 -103.2767 70° East 436 502 37,000  Level Albuquerque Center
Thu 03:59:47 AM 36.4447 -103.1322 71° East 437 503 37,000  Level Albuquerque Center
Thu 04:00:47 AM 36.4856 -102.9872 71° East 439 505 37,000  Level Albuquerque Center
Thu 04:01:47 AM 36.5283 -102.8347 71° East 437 503 37,000  Level Albuquerque Center
Thu 04:02:48 AM 36.5672 -102.6922 71° East 435 501 37,000  Level Albuquerque Center
Thu 04:03:48 AM 36.6081 -102.5514 70° East 434 499 37,000  Level Albuquerque Center
Thu 04:04:48 AM 36.6458 -102.4086 72° East 435 501 37,000  Level Albuquerque Center
Thu 04:05:49 AM 36.6861 -102.2672 70° East 433 498 37,000  Level Albuquerque Center
Thu 04:06:49 AM 36.7247 -102.1258 71° East 433 498 37,000  Level Albuquerque Center
Thu 04:07:49 AM 36.7617 -101.9883 71° East 436 502 37,000  Level Albuquerque Center
Thu 04:08:50 AM 36.8050 -101.8292 71° East 436 502 37,000  Level Albuquerque Center
Thu 04:09:50 AM 36.8428 -101.6914 71° East 437 503 37,000  Level Albuquerque Center
Thu 04:10:34 AM 36.8733 -101.5756 72° East 440 506 37,000  Level Kansas City Center
Thu 04:11:35 AM 36.9106 -101.4367 71° East 441 507 37,000  Level Kansas City Center
Thu 04:12:35 AM 36.9467 -101.2989 72° East 440 506 37,000  Level Kansas City Center
Thu 04:13:36 AM 36.9897 -101.1358 72° East 442 509 37,000  Level Kansas City Center
Thu 04:14:36 AM 37.0258 -100.9969 72° East 441 507 37,000  Level Kansas City Center
Thu 04:15:37 AM 37.0617 -100.8594 72° East 438 504 37,000  Level Kansas City Center
Thu 04:16:37 AM 37.1033 -100.6964 72° East 441 507 37,000  Level Kansas City Center
Thu 04:17:38 AM 37.1394 -100.5578 72° East 441 507 37,000  Level Kansas City Center
Thu 04:18:38 AM 37.1761 -100.4189 72° East 441 507 37,000  Level Kansas City Center
Thu 04:19:39 AM 37.2175 -100.2558 72° East 441 507 37,000  Level Kansas City Center
Thu 04:20:39 AM 37.2528 -100.1150 72° East 443 510 37,000  Level Kansas City Center
Thu 04:21:40 AM 37.2883 -99.9744 72° East 444 511 37,000  Level Kansas City Center
Thu 04:22:40 AM 37.3286 -99.8128 73° East 438 504 37,000  Level Kansas City Center
Thu 04:23:41 AM 37.3642 -99.6739 72° East 437 503 37,000  Level Kansas City Center
Thu 04:24:42 AM 37.3986 -99.5342 73° East 438 504 37,000  Level Kansas City Center
Thu 04:25:42 AM 37.4367 -99.3800 73° East 438 504 37,000  Level Kansas City Center
Thu 04:26:43 AM 37.4736 -99.2331 72° East 440 506 37,000  Level Kansas City Center
Thu 04:27:43 AM 37.5086 -99.0858 73° East 440 506 37,000  Level Kansas City Center
Thu 04:28:44 AM 37.5436 -98.9383 73° East 441 507 37,000  Level Kansas City Center
Thu 04:29:44 AM 37.5789 -98.7906 73° East 441 507 37,000  Level Kansas City Center
Thu 04:30:45 AM 37.6139 -98.6433 73° East 441 507 37,000  Level Kansas City Center
Thu 04:31:46 AM 37.6500 -98.4958 73° East 441 507 37,000  Level Kansas City Center
Thu 04:32:46 AM 37.6858 -98.3486 73° East 441 507 37,000  Level Kansas City Center
Thu 04:33:47 AM 37.7200 -98.2022 74° East 436 502 37,000  Level Kansas City Center
Thu 04:34:48 AM 37.7556 -98.0417 74° East 434 499 37,000  Level Kansas City Center
Thu 04:35:48 AM 37.7881 -97.8911 75° East 440 506 37,000  Level Kansas City Center
Thu 04:36:49 AM 37.8208 -97.7361 75° East 452 520 37,000  Level Kansas City Center
Thu 04:37:49 AM 37.8572 -97.5878 73° East 443 510 37,000  Level Kansas City Center
Thu 04:38:50 AM 37.8939 -97.4356 73° East 441 507 37,000  Level Kansas City Center
Thu 04:39:51 AM 37.9286 -97.2853 74° East 445 512 37,000  Level Kansas City Center
Thu 04:40:51 AM 37.9622 -97.1342 74° East 447 514 37,000  Level Kansas City Center
Thu 04:41:52 AM 37.9961 -96.9836 74° East 445 512 37,000  Level Kansas City Center
Thu 04:42:52 AM 38.0303 -96.8308 74° East 448 516 37,000  Level Kansas City Center
Thu 04:43:53 AM 38.0628 -96.6786 75° East 449 517 37,000  Level Kansas City Center
Thu 04:44:54 AM 38.0967 -96.5272 74° East 448 516 37,000  Level Kansas City Center
Thu 04:45:54 AM 38.1294 -96.3753 75° East 447 514 37,000  Level Kansas City Center
Thu 04:46:55 AM 38.1619 -96.2236 75° East 446 513 37,000  Level Kansas City Center
Thu 04:47:55 AM 38.1969 -96.0597 75° East 440 506 37,000  Level Kansas City Center
Thu 04:48:56 AM 38.2278 -95.9133 75° East 447 514 37,000  Level Kansas City Center
Thu 04:49:57 AM 38.2642 -95.7419 75° East 451 519 37,000  Level Kansas City Center
Thu 04:50:57 AM 38.2953 -95.5947 75° East 451 519 37,000  Level Kansas City Center
Thu 04:51:58 AM 38.3258 -95.4464 75° East 453 521 37,000  Level Kansas City Center
Thu 04:52:59 AM 38.3617 -95.2753 75° East 451 519 37,000  Level Kansas City Center
Thu 04:53:59 AM 38.3917 -95.1267 76° East 452 520 37,000  Level Kansas City Center
Thu 04:55:00 AM 38.4217 -94.9789 75° East 452 520 37,000  Level Kansas City Center
Thu 04:56:00 AM 38.4564 -94.8083 75° East 448 516 37,000  Level Kansas City Center
Thu 04:57:01 AM 38.4861 -94.6600 76° East 451 519 37,000  Level Kansas City Center
Thu 04:58:02 AM 38.5158 -94.5122 76° East 451 519 37,000  Level Kansas City Center
Thu 04:59:03 AM 38.5500 -94.3389 76° East 452 520 37,000  Level Kansas City Center
Thu 05:00:04 AM 38.5792 -94.1889 76° East 455 524 37,000  Level Kansas City Center
Thu 05:01:05 AM 38.6083 -94.0394 76° East 454 522 37,000  Level Kansas City Center
Thu 05:02:05 AM 38.6414 -93.8642 76° East 455 524 37,000  Level Kansas City Center
Thu 05:03:06 AM 38.6711 -93.7139 76° East 452 520 37,000  Level Kansas City Center
Thu 05:04:06 AM 38.7006 -93.5553 77° East 455 524 37,000  Level Kansas City Center
Thu 05:05:07 AM 38.7314 -93.3958 76° East 458 527 37,000  Level Kansas City Center
Thu 05:06:08 AM 38.7608 -93.2358 77° East 459 528 37,000  Level Kansas City Center
Thu 05:07:08 AM 38.7903 -93.0778 77° East 457 526 37,000  Level Kansas City Center
Thu 05:08:09 AM 38.8197 -92.9183 77° East 457 526 37,000  Level Kansas City Center
Thu 05:09:10 AM 38.8489 -92.7561 77° East 460 529 37,000  Level Kansas City Center
Thu 05:10:10 AM 38.8775 -92.5933 77° East 464 534 37,000  Level Kansas City Center
Thu 05:11:11 AM 38.9069 -92.4300 77° East 466 536 37,000  Level Kansas City Center
Thu 05:12:11 AM 38.9358 -92.2683 77° East 465 535 37,000  Level Kansas City Center
Thu 05:13:12 AM 38.9647 -92.1069 77° East 463 533 37,000  Level Kansas City Center
Thu 05:14:12 AM 38.9928 -91.9431 78° East 464 534 37,000  Level Kansas City Center
Thu 05:15:13 AM 39.0192 -91.7792 78° East 467 537 37,000  Level Kansas City Center
Thu 05:16:14 AM 39.0472 -91.6233 77° East 465 535 37,000  Level Kansas City Center
Thu 05:17:14 AM 39.0747 -91.4597 78° East 467 537 37,000  Level Kansas City Center
Thu 05:18:15 AM 39.1019 -91.2978 78° East 465 535 37,000  Level Kansas City Center
Thu 05:19:15 AM 39.1286 -91.1356 78° East 464 534 37,000  Level Kansas City Center
Thu 05:20:16 AM 39.1567 -90.9739 77° East 463 533 37,000  Level Kansas City Center
Thu 05:21:17 AM 39.1836 -90.8094 78° East 466 536 37,000  Level Kansas City Center
Thu 05:22:17 AM 39.2103 -90.6447 78° East 467 537 37,000  Level Kansas City Center
Thu 05:23:18 AM 39.2367 -90.4783 78° East 469 540 37,000  Level Kansas City Center
Thu 05:24:19 AM 39.2628 -90.3119 78° East 471 542 37,000  Level Kansas City Center
Thu 05:25:19 AM 39.2886 -90.1469 79° East 470 541 37,000  Level Kansas City Center
Thu 05:26:20 AM 39.3139 -89.9814 79° East 470 541 37,000  Level Kansas City Center
Thu 05:27:20 AM 39.3386 -89.8175 79° East 466 536 37,000  Level Kansas City Center
Thu 05:28:21 AM 39.3689 -89.6194 79° East 467 537 37,000 -344 Level Kansas City Center
Thu 05:29:22 AM 39.3942 -89.4553 79° East 467 537 36,300 -843 Descending Kansas City Center
Thu 05:30:22 AM 39.4189 -89.2922 79° East 465 535 35,300 -893 Descending Kansas City Center
Thu 05:31:23 AM 39.4386 -89.1525 80° East 466 536 34,500 -885 Descending Kansas City Center
Thu 05:32:24 AM 39.4631 -88.9856 79° East 471 542 33,500 -1,091 Descending Kansas City Center
Thu 05:33:24 AM 39.4933 -88.7817 79° East 482 555 32,300 -1,091 Descending Kansas City Center
Thu 05:34:25 AM 39.5172 -88.6111 80° East 483 556 31,300 -942 Descending Kansas City Center
Thu 05:35:25 AM 39.5422 -88.4483 79° East 477 549 30,400 -942 Descending Kansas City Center
Thu 05:36:26 AM 39.5656 -88.2772 80° East 478 550 29,400 -992 Descending Kansas City Center
Thu 05:37:26 AM 39.5897 -88.1067 80° East 477 549 28,400 -962 Descending Kansas City Center
Thu 05:38:12 AM 39.6053 -87.9933 80° East 472 543 27,700 -1,121 Descending Indianapolis Center
Thu 05:39:13 AM 39.6264 -87.8328 80° East 460 529 26,400 -2,852 Descending Indianapolis Center
Thu 05:40:14 AM 39.6478 -87.6767 80° East 444 511 21,900 -3,967 Descending Indianapolis Center
Thu 05:41:14 AM 39.6703 -87.5081 80° East 467 537 18,400 -3,025 Descending Indianapolis Center
Thu 05:42:15 AM 39.6911 -87.3464 80° East 461 531 15,800 -2,459 Descending Indianapolis Center
Thu 05:43:16 AM 39.7111 -87.1983 80° East 429 494 13,400 -1,820 Descending Indianapolis Center
Thu 05:44:17 AM 39.7297 -87.0553 80° East 410 472 12,100 -694 Descending Indianapolis Center
Thu 05:45:17 AM 39.7472 -86.9056 81° East 359 413 12,000 -595 Descending Indianapolis Center
Thu 05:46:18 AM 39.7628 -86.7908 80° East 332 382 10,900 -1,328 Descending Indianapolis Center
Thu 05:47:19 AM 39.7761 -86.6814 81° East 311 358 9,300 -1,636 Descending Indianapolis Center
Thu 05:48:19 AM 39.7900 -86.5717 81° East 309 356 7,600 -1,587 Descending Indianapolis Center
Thu 05:49:20 AM 39.8033 -86.4631 81° East 305 351 6,100 -1,475 Descending Indianapolis Center
Thu 05:50:21 AM 39.8175 -86.3561 80° East 301 346 4,600 -1,377 Descending Indianapolis Center
Thu 05:51:22 AM 39.8569 -86.2697 59° Northeast 281 323 3,300 -793 Descending Indianapolis Center
Thu 05:52:22 AM 39.8719 -86.1861 77° East 261 300 3,000 -300 Descending Indianapolis Center

Login

Don't have an account? Register now (free) for customized features, flight alerts, and more!